Time;durP1;ratioP1;P1;durP2;ratioP2;P2;SDS_P1;SDS_P2;PMS_P1;PMS_P2;Temp;Humidity;BMP_temperature;BMP_pressure;BME280_temperature;BME280_humidity;BME280_pressure;Samples;Min_cycle;Max_cycle;Signal;HPM_P1;HPM_P2
2023/01/19 00:00:26;;;;;;;34.97;4.80;;;;;;;;;;5031878;28;20103;-73
2023/01/19 00:02:51;;;;;;;15.80;2.78;;;;;;;;;;5027027;28;20083;-72
2023/01/19 00:05:17;;;;;;;32.10;3.75;;;;;;;;;;5024513;28;20044;-73
2023/01/19 00:07:42;;;;;;;29.77;3.78;;;;;;;;;;5024603;28;20021;-73
2023/01/19 00:10:08;;;;;;;31.42;3.55;;;;;;;;;;5022245;28;20085;-73
2023/01/19 00:12:33;;;;;;;30.75;4.90;;;;;;;;;;5007145;28;20477;-72
2023/01/19 00:15:01;;;;;;;26.90;3.83;;;;;;;;;;5024472;28;20040;-72
2023/01/19 00:17:26;;;;;;;26.90;4.22;;;;;;;;;;5023945;28;20036;-72
2023/01/19 00:19:51;;;;;;;26.20;3.40;;;;;;;;;;5023126;28;20177;-74
2023/01/19 00:22:19;;;;;;;29.15;3.30;;;;;;;;;;5023672;28;20492;-71
2023/01/19 00:24:45;;;;;;;19.60;2.25;;;;;;;;;;5023485;28;20041;-73
2023/01/19 00:27:10;;;;;;;34.90;5.75;;;;;;;;;;5023260;28;20428;-72
2023/01/19 00:29:36;;;;;;;28.40;3.67;;;;;;;;;;5021697;28;20117;-71
2023/01/19 00:32:02;;;;;;;29.58;3.60;;;;;;;;;;5024673;28;20116;-73
2023/01/19 00:34:35;;;;;;;33.30;4.65;;;;;;;;;;5024967;28;20029;-73
2023/01/19 00:37:01;;;;;;;37.83;5.03;;;;;;;;;;5024895;28;20036;-72
2023/01/19 00:39:27;;;;;;;28.27;4.38;;;;;;;;;;5026352;28;20037;-73
2023/01/19 00:44:36;;;;;;;45.67;6.03;;;;;;;;;;5023558;28;20230;-72
2023/01/19 00:47:04;;;;;;;31.88;4.57;;;;;;;;;;5024339;28;20683;-72
2023/01/19 00:49:29;;;;;;;30.05;5.10;;;;;;;;;;5023815;28;20025;-72
2023/01/19 00:51:55;;;;;;;30.13;4.43;;;;;;;;;;5023117;28;20094;-71
2023/01/19 00:54:20;;;;;;;30.95;4.50;;;;;;;;;;5022528;28;20691;-71
2023/01/19 00:56:47;;;;;;;31.48;4.05;;;;;;;;;;5023492;28;20144;-74
2023/01/19 00:59:13;;;;;;;31.45;3.50;;;;;;;;;;5020455;28;20029;-72
2023/01/19 01:01:38;;;;;;;35.90;5.55;;;;;;;;;;5023235;28;20355;-71
2023/01/19 01:04:03;;;;;;;31.60;3.90;;;;;;;;;;5004461;28;20122;-71
2023/01/19 01:06:29;;;;;;;39.63;4.25;;;;;;;;;;5021508;28;20668;-71
2023/01/19 01:08:54;;;;;;;33.30;4.95;;;;;;;;;;5021879;28;20029;-72
2023/01/19 01:11:20;;;;;;;31.65;4.47;;;;;;;;;;5019389;28;20044;-71
2023/01/19 01:13:49;;;;;;;50.22;5.15;;;;;;;;;;5019714;28;20714;-73
2023/01/19 01:16:15;;;;;;;36.45;4.40;;;;;;;;;;5024112;28;20071;-72
2023/01/19 01:18:41;;;;;;;20.42;2.83;;;;;;;;;;5020720;28;20056;-72
2023/01/19 01:21:06;;;;;;;35.78;5.13;;;;;;;;;;5024129;28;20040;-73
2023/01/19 01:23:32;;;;;;;30.60;3.75;;;;;;;;;;5020856;28;20124;-73
2023/01/19 01:25:58;;;;;;;42.05;4.45;;;;;;;;;;5024365;28;20041;-73
2023/01/19 01:28:25;;;;;;;34.67;5.60;;;;;;;;;;5024004;28;20032;-72
2023/01/19 01:30:54;;;;;;;48.03;6.28;;;;;;;;;;5025320;28;20044;-72
2023/01/19 01:33:20;;;;;;;29.38;4.60;;;;;;;;;;5023596;28;20029;-72
2023/01/19 01:35:49;;;;;;;35.92;4.93;;;;;;;;;;5024247;28;20595;-72
2023/01/19 01:38:14;;;;;;;28.88;3.45;;;;;;;;;;5024473;28;20285;-72
2023/01/19 01:40:40;;;;;;;33.95;4.78;;;;;;;;;;5023570;28;20303;-72
2023/01/19 01:43:12;;;;;;;34.17;4.30;;;;;;;;;;5024189;28;20090;-73
2023/01/19 01:45:40;;;;;;;28.05;3.17;;;;;;;;;;5018226;28;20061;-73
2023/01/19 01:48:14;;;;;;;28.67;3.13;;;;;;;;;;5025994;28;20474;-74
2023/01/19 01:53:36;;;;;;;30.52;4.00;;;;;;;;;;4986746;28;20042;-73
2023/01/19 01:56:03;;;;;;;38.70;4.68;;;;;;;;;;5004120;28;20099;-73
2023/01/19 01:58:30;;;;;;;24.65;3.83;;;;;;;;;;5012666;28;20029;-73
2023/01/19 02:03:39;;;;;;;20.98;3.03;;;;;;;;;;5025751;28;20271;-72
2023/01/19 02:06:06;;;;;;;34.17;4.72;;;;;;;;;;5031245;28;20051;-72
2023/01/19 02:14:18;;;;;;;40.55;5.47;;;;;;;;;;5031482;28;20036;-73
2023/01/19 02:16:44;;;;;;;44.38;5.88;;;;;;;;;;5031220;28;20033;-73
2023/01/19 02:19:12;;;;;;;54.85;7.40;;;;;;;;;;5026153;28;20040;-72
2023/01/19 02:22:03;;;;;;;66.38;9.15;;;;;;;;;;5026420;28;20445;-72
2023/01/19 02:24:29;;;;;;;59.92;7.32;;;;;;;;;;5029775;28;20135;-72
2023/01/19 02:26:55;;;;;;;66.60;10.25;;;;;;;;;;5032271;28;20041;-73
2023/01/19 02:29:23;;;;;;;43.30;6.45;;;;;;;;;;5030458;28;20049;-73
2023/01/19 02:31:48;;;;;;;65.32;7.50;;;;;;;;;;5028694;28;20110;-72
2023/01/19 02:34:15;;;;;;;46.85;6.80;;;;;;;;;;5029466;28;20116;-72
2023/01/19 02:36:46;;;;;;;56.50;6.28;;;;;;;;;;5029091;28;20129;-72
2023/01/19 02:39:12;;;;;;;47.03;6.05;;;;;;;;;;5025655;28;20047;-72
2023/01/19 02:41:43;;;;;;;42.42;5.32;;;;;;;;;;5027536;28;20021;-73
2023/01/19 02:44:09;;;;;;;27.63;4.13;;;;;;;;;;5026067;28;20060;-73
2023/01/19 02:46:34;;;;;;;39.05;5.10;;;;;;;;;;5034996;28;20067;-72
2023/01/19 02:49:00;;;;;;;38.28;5.18;;;;;;;;;;5046172;28;20035;-72
2023/01/19 02:51:26;;;;;;;30.17;4.72;;;;;;;;;;5046846;28;20332;-72
2023/01/19 02:54:11;;;;;;;35.72;5.10;;;;;;;;;;5046677;28;20036;-73
2023/01/19 02:56:51;;;;;;;30.42;4.82;;;;;;;;;;5044666;28;20033;-73
2023/01/19 02:59:36;;;;;;;35.58;4.85;;;;;;;;;;5045597;28;20043;-72
2023/01/19 03:02:16;;;;;;;36.70;4.85;;;;;;;;;;5042261;28;20036;-73
2023/01/19 03:05:00;;;;;;;34.35;4.40;;;;;;;;;;5043867;28;20029;-73
2023/01/19 03:07:32;;;;;;;31.30;4.38;;;;;;;;;;5046401;28;20485;-73
2023/01/19 03:09:58;;;;;;;;;;;;;;;;;;5026063;28;20737;-71
2023/01/19 03:12:42;;;;;;;31.90;5.20;;;;;;;;;;5025567;28;19916;-73
2023/01/19 03:15:36;;;;;;;38.33;5.90;;;;;;;;;;5047965;28;20047;-73
2023/01/19 03:18:02;;;;;;;31.63;4.32;;;;;;;;;;4980618;28;20173;-74
2023/01/19 03:20:28;;;;;;;39.72;5.00;;;;;;;;;;5046009;28;20049;-73
2023/01/19 03:22:57;;;;;;;27.67;4.75;;;;;;;;;;5048817;28;20044;-72
2023/01/19 03:25:23;;;;;;;35.95;5.07;;;;;;;;;;5045610;28;20044;-73
2023/01/19 03:27:50;;;;;;;28.27;4.28;;;;;;;;;;5047037;28;20432;-73
2023/01/19 03:33:16;;;;;;;31.65;5.30;;;;;;;;;;4966111;23;20116;-72
2023/01/19 03:35:44;;;;;;;30.17;4.05;;;;;;;;;;4968368;28;20120;-72
2023/01/19 03:38:13;;;;;;;42.72;5.03;;;;;;;;;;4967836;28;20061;-73
2023/01/19 03:40:39;;;;;;;32.00;4.45;;;;;;;;;;4965374;28;20529;-73
2023/01/19 03:43:05;;;;;;;29.88;4.88;;;;;;;;;;4966001;28;20030;-73
2023/01/19 03:45:32;;;;;;;29.35;4.18;;;;;;;;;;4977519;28;20550;-74
2023/01/19 03:47:58;;;;;;;35.33;4.40;;;;;;;;;;4988012;28;20466;-73
2023/01/19 03:50:26;;;;;;;39.65;5.65;;;;;;;;;;4986960;28;20199;-73
2023/01/19 03:53:09;;;;;;;33.05;5.22;;;;;;;;;;4989878;28;20298;-74
2023/01/19 03:55:38;;;;;;;30.65;5.22;;;;;;;;;;4990279;28;20508;-74
2023/01/19 03:58:03;;;;;;;38.45;5.60;;;;;;;;;;4990676;28;20041;-74
2023/01/19 04:00:31;;;;;;;26.25;4.38;;;;;;;;;;4988113;28;20030;-73
2023/01/19 04:02:59;;;;;;;34.97;6.13;;;;;;;;;;4984487;28;20528;-73
2023/01/19 04:05:24;;;;;;;35.35;4.93;;;;;;;;;;4985596;28;20414;-73
2023/01/19 04:07:50;;;;;;;37.88;5.00;;;;;;;;;;4983029;28;20029;-72
2023/01/19 04:10:16;;;;;;;28.88;4.57;;;;;;;;;;4983131;28;20026;-72
2023/01/19 04:12:41;;;;;;;44.60;6.60;;;;;;;;;;4983845;28;20494;-72
2023/01/19 04:15:07;;;;;;;36.38;4.57;;;;;;;;;;4984886;28;20026;-74
2023/01/19 04:17:32;;;;;;;23.83;4.47;;;;;;;;;;4983280;28;20030;-72
2023/01/19 04:19:57;;;;;;;44.75;5.35;;;;;;;;;;4986415;28;20135;-72
2023/01/19 04:22:23;;;;;;;43.67;5.40;;;;;;;;;;4986831;28;20124;-73
2023/01/19 04:24:48;;;;;;;41.20;5.20;;;;;;;;;;4986359;28;20561;-73
2023/01/19 04:27:17;;;;;;;28.35;3.95;;;;;;;;;;4986880;28;20591;-73
2023/01/19 04:29:42;;;;;;;25.98;3.70;;;;;;;;;;4989953;28;20029;-74
2023/01/19 04:32:07;;;;;;;34.70;5.28;;;;;;;;;;4991324;28;20546;-71
2023/01/19 04:34:33;;;;;;;37.15;5.78;;;;;;;;;;4984406;28;20136;-73
2023/01/19 04:36:58;;;;;;;46.90;5.20;;;;;;;;;;4986845;28;20038;-74
2023/01/19 04:39:23;;;;;;;32.03;4.53;;;;;;;;;;4967641;28;20252;-73
2023/01/19 04:41:50;;;;;;;34.97;5.03;;;;;;;;;;4967337;28;20464;-74
2023/01/19 04:44:15;;;;;;;30.88;4.65;;;;;;;;;;4966194;28;20042;-74
2023/01/19 04:46:41;;;;;;;42.15;5.57;;;;;;;;;;4973911;28;20652;-73
2023/01/19 04:49:07;;;;;;;33.97;5.15;;;;;;;;;;4983362;28;20034;-74
2023/01/19 04:51:33;;;;;;;34.85;4.97;;;;;;;;;;4985548;28;20038;-73
2023/01/19 04:53:58;;;;;;;44.03;5.97;;;;;;;;;;4982825;28;20092;-72
2023/01/19 04:56:23;;;;;;;31.17;5.32;;;;;;;;;;4984643;28;20285;-73
2023/01/19 04:58:49;;;;;;;43.00;5.70;;;;;;;;;;4987617;28;20037;-73
2023/01/19 05:01:14;;;;;;;35.47;5.20;;;;;;;;;;4982212;28;20382;-73
2023/01/19 05:03:39;;;;;;;32.55;4.20;;;;;;;;;;4985330;28;20281;-73
2023/01/19 05:06:05;;;;;;;43.75;5.88;;;;;;;;;;4985252;28;20476;-73
2023/01/19 05:08:30;;;;;;;45.35;6.95;;;;;;;;;;4986049;28;20029;-73
2023/01/19 05:10:56;;;;;;;29.75;4.85;;;;;;;;;;4984441;28;20040;-73
2023/01/19 05:13:21;;;;;;;43.83;5.25;;;;;;;;;;4967925;28;20064;-73
2023/01/19 05:15:49;;;;;;;38.70;5.32;;;;;;;;;;4986261;28;20101;-75
2023/01/19 05:18:14;;;;;;;31.13;5.38;;;;;;;;;;4982860;28;20182;-74
2023/01/19 05:20:40;;;;;;;38.95;5.07;;;;;;;;;;4968173;28;20037;-72
2023/01/19 05:23:05;;;;;;;34.97;4.70;;;;;;;;;;4984811;28;20482;-73
2023/01/19 05:25:30;;;;;;;32.90;4.13;;;;;;;;;;4987121;28;20072;-75
2023/01/19 05:27:56;;;;;;;27.25;4.20;;;;;;;;;;4986309;28;20053;-74
2023/01/19 05:30:21;;;;;;;34.45;5.18;;;;;;;;;;4986557;28;20091;-74
2023/01/19 05:32:46;;;;;;;43.13;4.50;;;;;;;;;;4983481;28;20061;-73
2023/01/19 05:35:15;;;;;;;25.42;4.25;;;;;;;;;;4985877;28;20219;-73
2023/01/19 05:37:43;;;;;;;26.45;5.25;;;;;;;;;;4982007;28;20094;-74
2023/01/19 05:40:09;;;;;;;31.00;4.45;;;;;;;;;;4968256;28;20038;-74
2023/01/19 05:42:35;;;;;;;29.95;5.88;;;;;;;;;;4964485;28;20038;-74
2023/01/19 05:45:02;;;;;;;37.38;5.80;;;;;;;;;;4967985;28;20239;-74
2023/01/19 05:47:28;;;;;;;31.52;4.47;;;;;;;;;;4969267;28;20030;-75
2023/01/19 05:49:53;;;;;;;30.88;4.93;;;;;;;;;;4971595;28;20231;-74
2023/01/19 05:52:19;;;;;;;41.22;6.40;;;;;;;;;;4965639;28;20037;-74
2023/01/19 05:54:44;;;;;;;51.75;4.53;;;;;;;;;;4971702;28;20085;-74
2023/01/19 05:57:10;;;;;;;36.85;5.20;;;;;;;;;;4967982;28;20027;-74
2023/01/19 05:59:35;;;;;;;28.08;3.08;;;;;;;;;;4970841;28;20033;-75
2023/01/19 06:02:01;;;;;;;27.67;4.03;;;;;;;;;;4977037;28;20030;-75
2023/01/19 06:04:26;;;;;;;26.13;4.15;;;;;;;;;;4972997;28;20434;-74
2023/01/19 06:06:52;;;;;;;26.45;5.10;;;;;;;;;;4970196;28;20347;-72
2023/01/19 06:09:17;;;;;;;29.05;4.32;;;;;;;;;;4972320;28;20041;-75
2023/01/19 06:11:44;;;;;;;30.15;4.07;;;;;;;;;;4972805;28;20022;-74
2023/01/19 06:14:10;;;;;;;21.90;3.95;;;;;;;;;;4972854;28;20041;-75
2023/01/19 06:16:35;;;;;;;25.55;4.13;;;;;;;;;;4974770;28;20030;-74
2023/01/19 06:19:00;;;;;;;36.78;5.72;;;;;;;;;;4976881;28;20046;-75
2023/01/19 06:21:26;;;;;;;24.55;3.55;;;;;;;;;;4972287;28;20574;-73
2023/01/19 06:23:51;;;;;;;31.10;4.60;;;;;;;;;;4971912;28;20121;-74
2023/01/19 06:26:16;;;;;;;27.30;3.70;;;;;;;;;;4973386;28;20282;-75
2023/01/19 06:28:41;;;;;;;31.75;4.60;;;;;;;;;;4955435;28;20031;-74
2023/01/19 06:31:07;;;;;;;32.78;4.63;;;;;;;;;;4955155;28;20035;-76
2023/01/19 06:33:32;;;;;;;26.73;4.05;;;;;;;;;;4953525;28;20874;-73
2023/01/19 06:35:57;;;;;;;26.48;3.90;;;;;;;;;;4957152;28;20074;-75
2023/01/19 06:38:25;;;;;;;20.52;4.13;;;;;;;;;;4954416;28;20494;-75
2023/01/19 06:40:52;;;;;;;22.42;3.35;;;;;;;;;;4953441;28;20130;-75
2023/01/19 06:43:19;;;;;;;30.48;4.50;;;;;;;;;;4955355;28;20030;-75
2023/01/19 06:45:44;;;;;;;22.33;3.20;;;;;;;;;;4954035;28;20716;-76
2023/01/19 06:48:09;;;;;;;29.00;4.68;;;;;;;;;;4968627;28;20066;-72
2023/01/19 06:50:35;;;;;;;29.13;3.53;;;;;;;;;;4965622;28;20112;-72
2023/01/19 06:53:00;;;;;;;25.50;4.95;;;;;;;;;;4962737;28;20034;-71
2023/01/19 06:55:25;;;;;;;29.88;3.97;;;;;;;;;;4965506;28;20069;-72
2023/01/19 06:57:57;;;;;;;19.73;2.63;;;;;;;;;;4963068;28;20030;-73
2023/01/19 07:00:23;;;;;;;19.65;3.67;;;;;;;;;;4964317;28;20038;-73
2023/01/19 07:02:48;;;;;;;33.63;3.60;;;;;;;;;;4965803;28;20030;-72
2023/01/19 07:05:16;;;;;;;21.83;3.17;;;;;;;;;;4963492;28;20045;-73
2023/01/19 07:07:44;;;;;;;28.10;2.83;;;;;;;;;;4965862;28;20426;-71
2023/01/19 07:10:15;;;;;;;31.00;3.55;;;;;;;;;;4965241;28;20537;-72
2023/01/19 07:12:41;;;;;;;29.67;3.55;;;;;;;;;;4983352;28;20503;-71
2023/01/19 07:15:06;;;;;;;35.63;5.00;;;;;;;;;;4983988;28;20030;-75
2023/01/19 07:17:34;;;;;;;28.40;4.15;;;;;;;;;;4983595;28;20136;-72
2023/01/19 07:20:01;;;;;;;26.50;3.90;;;;;;;;;;4983796;28;20112;-72
2023/01/19 07:22:27;;;;;;;21.02;3.00;;;;;;;;;;4981887;28;20579;-72
2023/01/19 07:24:52;;;;;;;20.35;2.83;;;;;;;;;;4983985;28;20170;-73
2023/01/19 07:27:17;;;;;;;21.38;3.40;;;;;;;;;;4982162;28;20056;-70
2023/01/19 07:29:43;;;;;;;29.52;3.75;;;;;;;;;;4982296;28;20072;-72
2023/01/19 07:32:10;;;;;;;20.45;3.45;;;;;;;;;;4981628;28;20030;-71
2023/01/19 07:34:35;;;;;;;29.02;4.57;;;;;;;;;;4983472;28;20180;-72
2023/01/19 07:37:01;;;;;;;17.95;2.60;;;;;;;;;;4979813;28;20033;-72
2023/01/19 07:39:26;;;;;;;19.33;2.75;;;;;;;;;;4964814;28;20582;-71
2023/01/19 07:41:52;;;;;;;27.35;3.83;;;;;;;;;;4964383;28;20026;-72
2023/01/19 07:44:17;;;;;;;24.95;3.80;;;;;;;;;;4964540;28;20034;-72
2023/01/19 07:46:42;;;;;;;22.75;4.18;;;;;;;;;;4973655;28;20049;-72
2023/01/19 07:49:08;;;;;;;20.60;3.05;;;;;;;;;;4988568;28;20141;-74
2023/01/19 07:51:33;;;;;;;24.58;3.53;;;;;;;;;;4987031;28;20036;-74
2023/01/19 07:53:58;;;;;;;30.45;3.80;;;;;;;;;;4991957;28;20064;-74
2023/01/19 07:56:26;;;;;;;30.25;3.97;;;;;;;;;;4989828;28;20026;-74
2023/01/19 07:58:52;;;;;;;26.48;4.18;;;;;;;;;;4991311;28;20106;-74
2023/01/19 08:01:17;;;;;;;25.45;4.38;;;;;;;;;;4994696;28;20088;-74
2023/01/19 08:03:42;;;;;;;28.35;4.57;;;;;;;;;;4989471;28;20030;-72
2023/01/19 08:06:18;;;;;;;27.60;3.72;;;;;;;;;;4983858;28;20042;-72
2023/01/19 08:08:43;;;;;;;34.28;3.78;;;;;;;;;;4983240;28;20030;-71
2023/01/19 08:11:08;;;;;;;39.85;4.63;;;;;;;;;;4982350;28;20065;-72
2023/01/19 08:13:34;;;;;;;33.05;3.92;;;;;;;;;;4982039;28;20334;-72
2023/01/19 08:15:59;;;;;;;23.20;3.85;;;;;;;;;;4984567;28;20037;-71
2023/01/19 08:18:24;;;;;;;26.23;3.28;;;;;;;;;;4965132;28;20569;-72
2023/01/19 08:20:50;;;;;;;22.40;3.33;;;;;;;;;;4982653;28;20037;-75
2023/01/19 08:23:16;;;;;;;22.10;3.97;;;;;;;;;;4999785;28;20069;-74
2023/01/19 08:25:45;;;;;;;31.33;5.00;;;;;;;;;;4990066;28;20658;-75
2023/01/19 08:28:12;;;;;;;21.23;3.38;;;;;;;;;;4990072;28;20030;-75
2023/01/19 08:30:37;;;;;;;30.25;4.35;;;;;;;;;;4972383;28;20095;-73
2023/01/19 08:33:03;;;;;;;26.90;4.70;;;;;;;;;;4990096;28;20050;-74
2023/01/19 08:35:29;;;;;;;29.88;3.35;;;;;;;;;;4991795;28;20504;-74
2023/01/19 08:37:54;;;;;;;21.98;4.20;;;;;;;;;;4981621;28;20453;-74
2023/01/19 08:40:20;;;;;;;26.63;3.08;;;;;;;;;;4971551;28;20060;-74
2023/01/19 08:42:47;;;;;;;23.90;3.72;;;;;;;;;;4965388;28;20403;-74
2023/01/19 08:45:12;;;;;;;17.75;2.88;;;;;;;;;;4969383;28;20463;-75
2023/01/19 08:47:41;;;;;;;29.48;3.83;;;;;;;;;;4969596;28;20038;-74
2023/01/19 08:50:06;;;;;;;27.83;3.65;;;;;;;;;;4970508;28;20031;-75
2023/01/19 08:52:31;;;;;;;14.70;2.78;;;;;;;;;;4968922;28;20030;-74
2023/01/19 08:55:00;;;;;;;18.20;2.45;;;;;;;;;;4967234;28;20120;-76
2023/01/19 08:57:27;;;;;;;15.88;2.83;;;;;;;;;;4970254;28;20184;-74
2023/01/19 08:59:53;;;;;;;28.90;4.13;;;;;;;;;;4970045;28;20450;-72
2023/01/19 09:02:20;;;;;;;36.03;3.20;;;;;;;;;;4962815;28;20554;-72
2023/01/19 09:04:45;;;;;;;20.08;2.95;;;;;;;;;;4945271;28;20243;-72
2023/01/19 09:07:11;;;;;;;23.30;2.90;;;;;;;;;;4963079;28;20545;-72
2023/01/19 09:09:42;;;;;;;25.15;3.40;;;;;;;;;;4963601;28;20030;-72
2023/01/19 09:12:09;;;;;;;17.45;2.75;;;;;;;;;;4961737;28;20038;-72
2023/01/19 09:14:35;;;;;;;18.27;3.00;;;;;;;;;;4963774;28;20030;-72
2023/01/19 09:17:00;;;;;;;30.95;3.50;;;;;;;;;;4961214;28;20030;-72
2023/01/19 09:19:28;;;;;;;27.58;3.72;;;;;;;;;;4961870;28;20039;-72
2023/01/19 09:21:53;;;;;;;18.55;3.15;;;;;;;;;;4963042;28;20034;-71
2023/01/19 09:24:19;;;;;;;20.48;2.95;;;;;;;;;;4966556;28;20093;-75
2023/01/19 09:26:44;;;;;;;18.52;2.72;;;;;;;;;;4963963;28;20729;-72
2023/01/19 09:29:09;;;;;;;18.10;3.72;;;;;;;;;;4962489;28;20037;-72
2023/01/19 09:31:34;;;;;;;18.52;3.20;;;;;;;;;;4962976;28;20045;-72
2023/01/19 09:34:00;;;;;;;24.27;3.47;;;;;;;;;;4962220;28;20701;-72
2023/01/19 09:36:25;;;;;;;26.42;4.10;;;;;;;;;;4964643;28;20042;-74
2023/01/19 09:38:50;;;;;;;20.48;3.05;;;;;;;;;;4947967;28;20188;-72
2023/01/19 09:41:19;;;;;;;34.88;3.80;;;;;;;;;;4962294;28;20046;-73
2023/01/19 09:43:47;;;;;;;19.15;2.78;;;;;;;;;;4959943;28;20038;-73
2023/01/19 09:46:21;;;;;;;21.95;3.40;;;;;;;;;;4969037;28;20176;-74
2023/01/19 09:48:50;;;;;;;21.98;3.33;;;;;;;;;;4993129;28;20061;-73
2023/01/19 09:51:22;;;;;;;20.50;3.13;;;;;;;;;;4979339;28;20469;-75
2023/01/19 09:54:06;;;;;;;28.83;2.80;;;;;;;;;;4963630;28;20454;-74
2023/01/19 09:56:34;;;;;;;17.80;2.60;;;;;;;;;;4984489;28;20313;-75
2023/01/19 09:58:59;;;;;;;21.85;3.72;;;;;;;;;;4987539;28;20038;-74
2023/01/19 10:01:32;;;;;;;21.95;3.22;;;;;;;;;;5005119;28;20034;-74
2023/01/19 10:04:16;;;;;;;23.17;3.10;;;;;;;;;;5002478;28;20030;-74
2023/01/19 10:06:43;;;;;;;20.50;2.92;;;;;;;;;;5000386;28;20038;-73
2023/01/19 10:09:09;;;;;;;11.32;2.47;;;;;;;;;;5000573;28;20446;-75
2023/01/19 10:12:06;;;;;;;18.55;3.13;;;;;;;;;;5003147;28;20103;-73
2023/01/19 10:14:43;;;;;;;25.25;3.75;;;;;;;;;;4998778;28;20541;-75
2023/01/19 10:17:08;;;;;;;22.98;3.10;;;;;;;;;;5000907;28;20084;-72
2023/01/19 10:19:39;;;;;;;19.67;3.72;;;;;;;;;;5000037;28;20029;-74
2023/01/19 10:22:18;;;;;;;18.45;3.90;;;;;;;;;;5000577;28;20113;-74
2023/01/19 10:24:44;;;;;;;19.48;2.80;;;;;;;;;;5002026;28;20040;-73
2023/01/19 10:27:17;;;;;;;21.83;2.72;;;;;;;;;;5003039;28;20069;-75
2023/01/19 10:29:43;;;;;;;17.05;2.58;;;;;;;;;;4998999;28;20033;-74
2023/01/19 10:32:11;;;;;;;13.60;2.00;;;;;;;;;;4999051;28;20030;-74
2023/01/19 10:34:36;;;;;;;25.75;4.85;;;;;;;;;;4985988;28;20076;-73
2023/01/19 10:37:16;;;;;;;27.60;3.50;;;;;;;;;;4967212;28;20050;-72
2023/01/19 10:39:42;;;;;;;16.55;2.42;;;;;;;;;;4968288;28;20436;-73
2023/01/19 10:42:09;;;;;;;19.80;2.80;;;;;;;;;;4976720;28;20070;-72
2023/01/19 10:44:35;;;;;;;23.42;3.80;;;;;;;;;;4979924;28;20053;-74
2023/01/19 10:47:01;;;;;;;26.10;3.35;;;;;;;;;;4983132;28;20112;-75
2023/01/19 10:49:36;;;;;;;21.00;3.47;;;;;;;;;;4982657;28;20030;-73
2023/01/19 10:52:04;;;;;;;17.33;2.95;;;;;;;;;;4982845;28;20624;-73
2023/01/19 10:54:30;;;;;;;32.70;3.40;;;;;;;;;;4980956;28;20090;-73
2023/01/19 10:57:02;;;;;;;20.20;3.65;;;;;;;;;;4971476;28;20515;-73
2023/01/19 10:59:45;;;;;;;24.40;4.07;;;;;;;;;;4965691;28;20027;-73
2023/01/19 11:02:17;;;;;;;22.50;3.17;;;;;;;;;;4964992;28;20038;-73
2023/01/19 11:04:44;;;;;;;14.70;2.63;;;;;;;;;;4963466;28;20030;-73
2023/01/19 11:07:29;;;;;;;16.52;2.50;;;;;;;;;;4964859;28;20392;-72
2023/01/19 11:10:12;;;;;;;24.25;3.05;;;;;;;;;;4962803;28;20035;-72
2023/01/19 11:12:41;;;;;;;30.73;3.20;;;;;;;;;;4963605;28;20370;-73
2023/01/19 11:15:25;;;;;;;18.75;3.53;;;;;;;;;;4964921;28;20027;-73
2023/01/19 11:17:52;;;;;;;16.13;2.65;;;;;;;;;;4946712;28;20030;-73
2023/01/19 11:20:26;;;;;;;16.80;2.20;;;;;;;;;;4963399;28;20432;-73
2023/01/19 11:23:04;;;;;;;16.95;2.13;;;;;;;;;;4964931;28;20443;-73
2023/01/19 11:25:31;;;;;;;14.35;1.73;;;;;;;;;;4964220;28;20057;-74
2023/01/19 11:27:56;;;;;;;11.55;1.95;;;;;;;;;;4962728;28;20045;-73
2023/01/19 11:30:25;;;;;;;21.98;2.83;;;;;;;;;;4965725;28;20038;-74
2023/01/19 11:32:51;;;;;;;15.38;2.25;;;;;;;;;;4965591;28;20027;-72
2023/01/19 11:35:35;;;;;;;15.02;2.15;;;;;;;;;;4963290;28;20055;-72
2023/01/19 11:38:04;;;;;;;15.13;2.67;;;;;;;;;;4965176;28;20513;-72
2023/01/19 11:40:32;;;;;;;17.25;2.33;;;;;;;;;;4963265;28;20030;-73
2023/01/19 11:42:57;;;;;;;15.65;2.72;;;;;;;;;;4962409;28;20721;-72
2023/01/19 11:45:22;;;;;;;14.32;1.90;;;;;;;;;;4946050;28;20042;-72
2023/01/19 11:47:49;;;;;;;11.93;2.42;;;;;;;;;;4981993;28;20057;-73
2023/01/19 11:50:27;;;;;;;14.55;2.80;;;;;;;;;;4982304;28;20116;-72
2023/01/19 11:53:10;;;;;;;13.63;2.25;;;;;;;;;;4981660;28;20053;-73
2023/01/19 11:55:54;;;;;;;11.95;2.10;;;;;;;;;;4983673;28;20030;-72
2023/01/19 11:58:20;;;;;;;15.35;2.28;;;;;;;;;;4982858;28;20037;-73
2023/01/19 12:00:48;;;;;;;11.15;2.50;;;;;;;;;;4981605;28;20029;-74
2023/01/19 12:03:21;;;;;;;12.10;2.13;;;;;;;;;;4983734;28;20099;-73
2023/01/19 12:05:50;;;;;;;18.90;2.55;;;;;;;;;;4981315;28;20140;-72
2023/01/19 12:08:19;;;;;;;11.43;2.35;;;;;;;;;;4983406;28;20034;-73
2023/01/19 12:10:46;;;;;;;15.68;2.67;;;;;;;;;;4983502;28;20129;-72
2023/01/19 12:13:21;;;;;;;19.48;2.17;;;;;;;;;;4983916;28;20033;-72
2023/01/19 12:15:50;;;;;;;17.98;3.08;;;;;;;;;;4981192;28;20560;-72
2023/01/19 12:18:20;;;;;;;16.35;2.92;;;;;;;;;;4983648;28;20038;-71
2023/01/19 12:20:48;;;;;;;20.27;2.58;;;;;;;;;;4975433;28;20040;-73
2023/01/19 12:23:32;;;;;;;21.17;3.25;;;;;;;;;;4976280;28;20041;-73
2023/01/19 12:26:00;;;;;;;15.50;2.40;;;;;;;;;;4982505;28;20041;-73
2023/01/19 12:28:34;;;;;;;18.50;2.88;;;;;;;;;;4980885;28;20034;-74
2023/01/19 12:31:00;;;;;;;11.50;2.28;;;;;;;;;;4983314;28;20030;-73
2023/01/19 12:33:37;;;;;;;25.27;2.67;;;;;;;;;;4983044;28;20049;-73
2023/01/19 12:36:05;;;;;;;15.45;2.13;;;;;;;;;;4970088;28;20233;-73
2023/01/19 12:38:49;;;;;;;17.67;2.40;;;;;;;;;;4961231;28;20107;-73
2023/01/19 12:41:14;;;;;;;19.77;2.92;;;;;;;;;;4961107;28;20030;-73
2023/01/19 12:43:40;;;;;;;15.85;2.63;;;;;;;;;;4960932;28;20477;-73
2023/01/19 12:46:37;;;;;;;15.05;2.50;;;;;;;;;;4966699;28;20044;-73
2023/01/19 12:49:05;;;;;;;17.15;2.65;;;;;;;;;;4980462;28;20540;-73
2023/01/19 12:51:30;;;;;;;17.90;2.75;;;;;;;;;;4981885;28;20030;-73
2023/01/19 12:53:58;;;;;;;20.38;3.35;;;;;;;;;;4980321;28;20068;-73
2023/01/19 12:56:31;;;;;;;16.13;2.78;;;;;;;;;;4982730;28;20421;-72
2023/01/19 12:58:56;;;;;;;13.80;2.47;;;;;;;;;;4982338;28;20076;-72
2023/01/19 13:01:25;;;;;;;21.45;2.78;;;;;;;;;;4981579;28;20034;-72
2023/01/19 13:04:26;;;;;;;17.63;3.45;;;;;;;;;;4983708;28;20119;-73
2023/01/19 13:06:51;;;;;;;13.48;2.55;;;;;;;;;;4979918;28;20042;-73
2023/01/19 13:09:43;;;;;;;17.60;2.22;;;;;;;;;;4979736;28;20328;-73
2023/01/19 13:12:24;;;;;;;19.08;2.90;;;;;;;;;;4982361;28;20211;-73
2023/01/19 13:14:51;;;;;;;15.93;2.70;;;;;;;;;;4980896;28;20030;-73
2023/01/19 13:17:21;;;;;;;13.07;2.10;;;;;;;;;;4982232;28;20164;-72
2023/01/19 13:19:50;;;;;;;14.32;2.28;;;;;;;;;;4979547;28;20129;-73
2023/01/19 13:22:34;;;;;;;13.80;2.65;;;;;;;;;;4983082;28;20117;-73
2023/01/19 13:25:23;;;;;;;19.13;2.20;;;;;;;;;;4980486;28;20551;-73
2023/01/19 13:27:48;;;;;;;14.77;2.45;;;;;;;;;;4981992;28;20041;-73
2023/01/19 13:30:16;;;;;;;16.95;2.88;;;;;;;;;;4980212;28;20058;-73
2023/01/19 13:32:44;;;;;;;11.73;2.15;;;;;;;;;;4982355;28;20371;-73
2023/01/19 13:35:14;;;;;;;20.85;2.90;;;;;;;;;;4974081;28;20038;-72
2023/01/19 13:37:41;;;;;;;16.75;3.00;;;;;;;;;;4962945;28;20145;-74
2023/01/19 13:40:14;;;;;;;13.52;2.00;;;;;;;;;;4962883;28;20034;-72
2023/01/19 13:42:41;;;;;;;27.27;3.92;;;;;;;;;;4960193;28;20030;-72
2023/01/19 13:45:16;;;;;;;18.80;2.50;;;;;;;;;;4962685;28;20031;-73
2023/01/19 13:47:42;;;;;;;18.00;2.40;;;;;;;;;;4979303;28;20026;-73
2023/01/19 13:50:34;;;;;;;14.95;2.05;;;;;;;;;;4982195;28;20045;-73
2023/01/19 13:53:00;;;;;;;14.77;2.15;;;;;;;;;;4981430;28;20026;-72
2023/01/19 13:55:26;;;;;;;17.77;2.05;;;;;;;;;;4981971;28;20038;-72
2023/01/19 13:57:52;;;;;;;16.33;2.30;;;;;;;;;;4984204;28;20616;-73
2023/01/19 14:00:19;;;;;;;13.68;2.58;;;;;;;;;;4982478;28;20030;-73
2023/01/19 14:02:51;;;;;;;17.77;2.83;;;;;;;;;;4983461;28;20112;-73
2023/01/19 14:05:21;;;;;;;13.00;1.83;;;;;;;;;;4984104;28;20057;-73
2023/01/19 14:07:47;;;;;;;14.07;2.75;;;;;;;;;;4981808;28;20026;-73
2023/01/19 14:10:15;;;;;;;19.45;2.67;;;;;;;;;;4979944;28;20499;-73
2023/01/19 14:12:41;;;;;;;14.77;2.13;;;;;;;;;;4983310;28;20343;-73
2023/01/19 14:15:15;;;;;;;12.38;2.60;;;;;;;;;;4981895;28;20069;-73
2023/01/19 14:17:41;;;;;;;14.90;2.15;;;;;;;;;;4979576;28;20516;-73
2023/01/19 14:20:26;;;;;;;18.67;2.72;;;;;;;;;;4982043;28;20483;-73
2023/01/19 14:22:51;;;;;;;14.57;2.35;;;;;;;;;;4983505;28;20561;-73
2023/01/19 14:25:27;;;;;;;11.13;2.05;;;;;;;;;;4985804;28;20022;-73
2023/01/19 14:28:13;;;;;;;16.20;2.55;;;;;;;;;;4985532;28;20033;-73
2023/01/19 14:30:39;;;;;;;13.85;2.63;;;;;;;;;;4983454;28;20026;-73
2023/01/19 14:33:06;;;;;;;26.65;2.85;;;;;;;;;;4985484;28;20069;-73
2023/01/19 14:35:33;;;;;;;23.58;2.60;;;;;;;;;;4974106;28;20573;-73
2023/01/19 14:37:58;;;;;;;14.82;1.90;;;;;;;;;;4963954;28;20057;-73
2023/01/19 14:40:26;;;;;;;7.50;1.67;;;;;;;;;;4966094;28;20408;-73
2023/01/19 14:43:07;;;;;;;13.32;1.90;;;;;;;;;;4966075;28;20128;-75
2023/01/19 14:45:34;;;;;;;18.63;1.92;;;;;;;;;;4965391;28;20506;-72
2023/01/19 14:48:02;;;;;;;16.10;2.08;;;;;;;;;;4983536;28;20033;-72
2023/01/19 14:50:32;;;;;;;9.43;1.73;;;;;;;;;;4986687;28;20041;-73
2023/01/19 14:53:00;;;;;;;22.75;2.00;;;;;;;;;;4984836;28;20144;-74
2023/01/19 14:55:45;;;;;;;11.70;2.05;;;;;;;;;;4983760;28;20065;-73